Time;durP1;ratioP1;P1;durP2;ratioP2;P2;SDS_P1;SDS_P2;PMS_P1;PMS_P2;Temp;Humidity;BMP_temperature;BMP_pressure;BME280_temperature;BME280_humidity;BME280_pressure;Samples;Min_cycle;Max_cycle;Signal;HPM_P1;HPM_P2
2023/12/05 00:00:27;;;;;;;14.75;10.43;;;-2.90;99.90;;;;;;5076519;28;20108;-30
2023/12/05 00:02:53;;;;;;;17.52;11.25;;;-2.80;99.90;;;;;;5074392;27;20104;-30
2023/12/05 00:05:19;;;;;;;19.35;13.15;;;-2.70;99.90;;;;;;5071539;28;20043;-36
2023/12/05 00:07:44;;;;;;;18.27;11.65;;;-2.60;99.90;;;;;;5078316;28;20024;-30
2023/12/05 00:10:10;;;;;;;16.23;10.50;;;-2.50;99.90;;;;;;5073650;28;20111;-31
2023/12/05 00:12:36;;;;;;;14.05;9.75;;;-2.40;99.90;;;;;;5074481;28;20551;-30
2023/12/05 00:15:01;;;;;;;23.23;15.38;;;-2.30;99.90;;;;;;5076462;28;20032;-31
2023/12/05 00:17:27;;;;;;;22.05;13.80;;;-2.30;99.90;;;;;;5077662;28;20024;-31
2023/12/05 00:19:52;;;;;;;18.70;13.02;;;-2.20;99.90;;;;;;5078481;28;20040;-30
2023/12/05 00:22:18;;;;;;;21.48;12.23;;;-2.20;99.90;;;;;;5078049;28;20502;-30
2023/12/05 00:24:44;;;;;;;20.08;12.23;;;-2.10;99.90;;;;;;5079668;28;20035;-32
2023/12/05 00:27:09;;;;;;;19.25;12.68;;;-2.10;99.90;;;;;;5074049;28;20054;-30
2023/12/05 00:29:37;;;;;;;17.00;9.63;;;-2.10;99.90;;;;;;5070659;28;20024;-30
2023/12/05 00:32:03;;;;;;;14.85;9.63;;;-2.10;99.90;;;;;;5082571;27;20046;-30
2023/12/05 00:34:28;;;;;;;10.15;8.05;;;-2.00;99.90;;;;;;5071087;28;20029;-32
2023/12/05 00:36:54;;;;;;;6.40;5.28;;;-2.00;99.90;;;;;;5074225;28;20032;-31
2023/12/05 00:39:20;;;;;;;15.13;9.68;;;-2.10;99.90;;;;;;5076573;28;20024;-37
2023/12/05 00:41:46;;;;;;;20.77;11.48;;;-2.10;99.90;;;;;;5074126;28;20111;-31
2023/12/05 00:44:12;;;;;;;12.35;7.30;;;-2.00;99.90;;;;;;5075141;28;20028;-30
2023/12/05 00:46:38;;;;;;;13.68;9.23;;;-2.00;99.90;;;;;;5069184;28;20035;-33
2023/12/05 00:49:03;;;;;;;15.25;9.63;;;-2.00;99.90;;;;;;5079776;28;20092;-34
2023/12/05 00:51:29;;;;;;;14.63;9.73;;;-2.00;99.90;;;;;;5073356;28;20392;-32
2023/12/05 00:53:55;;;;;;;17.75;10.98;;;-1.90;99.90;;;;;;5067865;28;20028;-32
2023/12/05 00:56:20;;;;;;;11.50;8.18;;;-1.90;99.90;;;;;;5071374;28;20055;-35
2023/12/05 00:58:47;;;;;;;13.15;9.30;;;-1.90;99.90;;;;;;5071896;28;20077;-31
2023/12/05 01:01:13;;;;;;;10.43;7.45;;;-1.90;99.90;;;;;;5071188;28;20029;-33
2023/12/05 01:03:38;;;;;;;13.18;9.45;;;-1.90;99.90;;;;;;5070640;28;20090;-34
2023/12/05 01:06:04;;;;;;;12.82;9.98;;;-1.80;99.90;;;;;;5071101;28;20498;-33
2023/12/05 01:08:30;;;;;;;11.05;8.40;;;-1.90;99.90;;;;;;5071958;28;20524;-33
2023/12/05 01:10:56;;;;;;;11.98;8.80;;;-1.80;99.90;;;;;;5074142;28;20020;-33
2023/12/05 01:13:21;;;;;;;11.13;8.73;;;-1.80;99.90;;;;;;5068775;28;20141;-34
2023/12/05 01:15:47;;;;;;;13.75;8.32;;;-1.80;99.90;;;;;;5069993;28;20039;-33
2023/12/05 01:18:13;;;;;;;13.43;9.65;;;-1.70;99.90;;;;;;5074736;28;20691;-32
2023/12/05 01:20:39;;;;;;;11.73;8.50;;;-1.70;99.90;;;;;;5007133;28;20410;-33
2023/12/05 01:23:04;;;;;;;15.68;10.73;;;-1.70;99.90;;;;;;5076390;28;20103;-31
2023/12/05 01:25:30;;;;;;;14.15;10.48;;;-1.70;99.90;;;;;;5069222;28;20488;-36
2023/12/05 01:27:56;;;;;;;14.63;10.38;;;-1.70;99.90;;;;;;5077143;28;20028;-35
2023/12/05 01:30:21;;;;;;;6.72;4.80;;;-1.60;99.90;;;;;;5077259;28;20482;-34
2023/12/05 01:32:47;;;;;;;12.40;9.82;;;-1.60;99.90;;;;;;5076792;28;20024;-32
2023/12/05 01:35:13;;;;;;;13.50;9.15;;;-1.50;99.90;;;;;;5073666;28;20031;-31
2023/12/05 01:37:38;;;;;;;13.48;8.48;;;-1.50;99.90;;;;;;5073100;28;20071;-32
2023/12/05 01:40:06;;;;;;;18.20;10.13;;;-1.50;99.90;;;;;;5074772;28;20090;-32
2023/12/05 01:42:38;;;;;;;11.05;9.13;;;-1.50;99.90;;;;;;5076089;28;20363;-34
2023/12/05 01:45:10;;;;;;;14.40;10.38;;;-1.40;99.90;;;;;;5072096;28;20036;-32
2023/12/05 01:47:39;;;;;;;10.02;8.32;;;-1.40;99.90;;;;;;5075351;28;20039;-37
2023/12/05 01:50:10;;;;;;;;;;;-1.40;99.90;;;;;;5073358;28;20051;-32
2023/12/05 01:52:36;;;;;;;10.48;7.22;;;-1.40;99.90;;;;;;5071219;28;20587;-34
2023/12/05 01:55:02;;;;;;;14.93;8.55;;;-1.30;99.90;;;;;;5072817;28;20489;-33
2023/12/05 01:57:28;;;;;;;11.00;8.25;;;-1.30;99.90;;;;;;5083347;28;20024;-37
2023/12/05 01:59:54;;;;;;;11.50;8.05;;;-1.30;99.90;;;;;;5074615;28;20031;-40
2023/12/05 02:02:20;;;;;;;6.57;5.97;;;-1.20;99.90;;;;;;5078115;28;20481;-36
2023/12/05 02:04:47;;;;;;;14.90;10.00;;;-1.20;99.90;;;;;;5095300;28;20445;-39
2023/12/05 02:07:13;;;;;;;14.73;11.88;;;-1.20;99.90;;;;;;5075200;28;20029;-38
2023/12/05 02:09:39;;;;;;;13.27;9.57;;;-1.20;99.90;;;;;;5077184;28;20393;-39
2023/12/05 02:12:05;;;;;;;13.45;8.55;;;-1.20;99.90;;;;;;5077110;28;20099;-40
2023/12/05 02:14:32;;;;;;;17.65;10.20;;;-1.20;99.90;;;;;;5076013;28;20030;-39
2023/12/05 02:17:25;;;;;;;11.02;7.90;;;-1.20;99.90;;;;;;5076801;28;20035;-34
2023/12/05 02:20:09;;;;;;;15.43;10.65;;;-1.20;99.90;;;;;;5073740;28;20027;-39
2023/12/05 02:22:56;;;;;;;15.80;8.85;;;-1.20;99.90;;;;;;5071945;28;20044;-40
2023/12/05 02:25:53;;;;;;;16.27;7.82;;;-1.10;99.90;;;;;;5073105;28;20028;-40
2023/12/05 02:28:18;;;;;;;9.82;7.38;;;-1.10;99.90;;;;;;5078313;28;20020;-36
2023/12/05 02:30:44;;;;;;;8.45;7.50;;;-1.10;99.90;;;;;;5076638;28;20548;-38
2023/12/05 02:33:10;;;;;;;13.10;9.20;;;-1.10;99.90;;;;;;5073077;28;20031;-40
2023/12/05 02:35:37;;;;;;;11.45;8.50;;;-1.00;99.90;;;;;;5074559;28;20020;-41
2023/12/05 02:38:24;;;;;;;8.95;7.38;;;-1.00;99.90;;;;;;5075398;28;20121;-40
2023/12/05 02:40:55;;;;;;;16.20;8.27;;;-1.00;99.90;;;;;;5080186;28;20032;-40
2023/12/05 02:43:55;;;;;;;15.48;9.65;;;-1.10;99.90;;;;;;5073998;28;20508;-37
2023/12/05 02:46:21;;;;;;;11.75;7.47;;;-1.00;99.90;;;;;;5053012;28;20584;-36
2023/12/05 02:48:49;;;;;;;11.75;8.30;;;-1.00;99.90;;;;;;5074869;28;20036;-40
2023/12/05 02:51:15;;;;;;;13.82;9.60;;;-1.00;99.90;;;;;;5071855;28;20020;-39
2023/12/05 02:53:41;;;;;;;8.85;7.55;;;-1.00;99.90;;;;;;5074121;28;20046;-39
2023/12/05 02:56:07;;;;;;;12.75;8.55;;;-1.00;99.90;;;;;;5076953;28;20028;-39
2023/12/05 02:58:33;;;;;;;13.23;9.23;;;-1.00;99.90;;;;;;5071747;28;20555;-40
2023/12/05 03:00:59;;;;;;;13.65;9.50;;;-1.00;99.90;;;;;;5070621;28;20036;-38
2023/12/05 03:03:24;;;;;;;13.38;9.77;;;-1.00;99.90;;;;;;5071364;28;20069;-39
2023/12/05 03:05:50;;;;;;;14.25;9.40;;;-1.10;99.90;;;;;;5069967;28;20037;-35
2023/12/05 03:08:15;;;;;;;15.10;9.25;;;-1.10;99.90;;;;;;5074242;28;20033;-34
2023/12/05 03:10:41;;;;;;;13.70;9.43;;;-1.00;99.90;;;;;;5073604;28;20024;-33
2023/12/05 03:13:06;;;;;;;9.70;7.22;;;-1.00;99.90;;;;;;5078142;28;20136;-30
2023/12/05 03:15:32;;;;;;;13.98;9.02;;;-1.00;99.90;;;;;;5074669;28;20031;-38
2023/12/05 03:17:58;;;;;;;11.02;8.73;;;-0.90;99.90;;;;;;5069893;28;20142;-32
2023/12/05 03:20:24;;;;;;;11.70;8.45;;;-1.00;99.90;;;;;;5072627;28;20041;-33
2023/12/05 03:22:49;;;;;;;14.43;9.95;;;-1.00;99.90;;;;;;5079118;28;20123;-32
2023/12/05 03:25:15;;;;;;;16.50;11.10;;;-0.90;99.90;;;;;;5085438;28;20025;-36
2023/12/05 03:27:41;;;;;;;14.57;10.05;;;-0.90;99.90;;;;;;5073179;28;20021;-32
2023/12/05 03:30:07;;;;;;;12.98;9.20;;;-0.90;99.90;;;;;;5071770;28;20025;-32
2023/12/05 03:32:32;;;;;;;15.48;10.40;;;-1.00;99.90;;;;;;5071216;28;20037;-34
2023/12/05 03:34:58;;;;;;;16.65;9.90;;;-1.00;99.90;;;;;;5077101;28;20040;-32
2023/12/05 03:37:24;;;;;;;19.63;9.88;;;-1.00;99.90;;;;;;5076334;28;20119;-34
2023/12/05 03:39:49;;;;;;;14.68;10.27;;;-1.00;99.90;;;;;;5075275;28;20021;-32
2023/12/05 03:42:15;;;;;;;13.13;8.60;;;-1.00;99.90;;;;;;5076925;28;20611;-32
2023/12/05 03:44:40;;;;;;;17.63;9.35;;;-1.00;99.90;;;;;;5068970;28;20047;-33
2023/12/05 03:47:06;;;;;;;11.18;8.85;;;-1.00;99.90;;;;;;5068133;28;20055;-33
2023/12/05 03:49:31;;;;;;;16.02;10.57;;;-1.00;99.90;;;;;;5070674;28;20144;-33
2023/12/05 03:51:57;;;;;;;18.20;10.75;;;-1.00;99.90;;;;;;5069259;28;20059;-33
2023/12/05 03:54:23;;;;;;;23.33;12.23;;;-0.90;99.90;;;;;;5067667;28;20029;-32
2023/12/05 03:56:48;;;;;;;22.48;12.50;;;-1.00;99.90;;;;;;5072991;28;20081;-34
2023/12/05 03:59:14;;;;;;;27.13;13.07;;;-0.90;99.90;;;;;;5071852;28;20397;-34
2023/12/05 04:01:40;;;;;;;20.50;11.70;;;-1.00;99.90;;;;;;5075625;28;20067;-32
2023/12/05 04:04:05;;;;;;;22.75;12.60;;;-1.00;99.90;;;;;;5069540;28;20504;-33
2023/12/05 04:06:31;;;;;;;19.10;10.85;;;-1.10;99.90;;;;;;5071759;28;20058;-32
2023/12/05 04:08:56;;;;;;;15.68;10.57;;;-1.10;99.90;;;;;;5070276;28;20389;-33
2023/12/05 04:11:32;;;;;;;21.23;12.73;;;-1.20;99.90;;;;;;5074521;28;20020;-33
2023/12/05 04:13:59;;;;;;;20.17;10.65;;;-1.20;99.90;;;;;;5068593;28;20491;-35
2023/12/05 04:16:25;;;;;;;18.55;9.68;;;-1.20;99.90;;;;;;5068528;28;20613;-35
2023/12/05 04:18:50;;;;;;;14.75;8.07;;;-1.20;99.90;;;;;;5071546;28;20039;-40
2023/12/05 04:21:19;;;;;;;19.85;10.82;;;-1.20;99.90;;;;;;5071674;28;20094;-36
2023/12/05 04:23:46;;;;;;;15.00;10.23;;;-1.20;99.90;;;;;;5074573;28;20078;-38
2023/12/05 04:26:19;;;;;;;21.65;12.98;;;-1.20;99.90;;;;;;5077334;28;20107;-39
2023/12/05 04:28:45;;;;;;;15.82;9.32;;;-1.20;99.90;;;;;;5072425;28;20028;-39
2023/12/05 04:31:11;;;;;;;17.15;9.15;;;-1.20;99.90;;;;;;5072431;28;20096;-42
2023/12/05 04:33:41;;;;;;;14.57;9.70;;;-1.30;99.90;;;;;;5068623;28;20016;-39
2023/12/05 04:36:08;;;;;;;11.75;7.13;;;-1.30;99.90;;;;;;5068721;28;20078;-41
2023/12/05 04:38:36;;;;;;;16.38;8.77;;;-1.40;99.90;;;;;;5071384;28;20405;-41
2023/12/05 04:41:01;;;;;;;10.27;8.60;;;-1.50;99.90;;;;;;5076948;28;20074;-38
2023/12/05 04:43:27;;;;;;;14.02;8.65;;;-1.50;99.90;;;;;;5070613;28;20036;-41
2023/12/05 04:45:53;;;;;;;13.68;9.40;;;-1.50;99.90;;;;;;5075349;28;20512;-41
2023/12/05 04:48:18;;;;;;;11.63;8.57;;;-1.50;99.90;;;;;;5070949;28;20033;-39
2023/12/05 04:50:44;;;;;;;11.80;8.43;;;-1.50;99.90;;;;;;5070938;28;20029;-39
2023/12/05 04:53:10;;;;;;;17.05;10.68;;;-1.50;99.90;;;;;;5072732;28;20382;-37
2023/12/05 04:55:39;;;;;;;14.18;9.80;;;-1.50;99.90;;;;;;5075488;28;20051;-42
2023/12/05 04:58:04;;;;;;;;;;;-1.80;99.90;;;;;;5078533;28;20032;-41
2023/12/05 05:00:31;;;;;;;14.65;7.85;;;-2.00;99.90;;;;;;5075049;28;20323;-42
2023/12/05 05:02:57;;;;;;;13.05;8.75;;;-2.10;99.90;;;;;;5073545;28;20040;-36
2023/12/05 05:05:23;;;;;;;11.05;8.02;;;-2.20;99.90;;;;;;5091190;27;20038;-42
2023/12/05 05:07:48;;;;;;;15.00;9.23;;;-2.20;99.90;;;;;;5075875;28;20373;-41
2023/12/05 05:10:14;;;;;;;16.52;9.75;;;-2.20;99.90;;;;;;5074482;28;20548;-42
2023/12/05 05:12:40;;;;;;;8.68;7.40;;;-2.20;99.90;;;;;;5077398;28;20627;-39
2023/12/05 05:15:06;;;;;;;16.25;8.40;;;-2.20;99.90;;;;;;5078806;28;20052;-38
2023/12/05 05:17:31;;;;;;;13.00;8.00;;;-2.20;99.90;;;;;;5074090;28;20028;-38
2023/12/05 05:19:57;;;;;;;36.78;11.77;;;-2.10;99.90;;;;;;5081565;28;20852;-40
2023/12/05 05:22:23;;;;;;;12.98;8.25;;;-2.20;99.90;;;;;;5078582;28;20025;-35
2023/12/05 05:24:48;;;;;;;9.15;8.18;;;-2.40;99.90;;;;;;5082446;28;20036;-38
2023/12/05 05:27:14;;;;;;;12.10;8.15;;;-2.50;99.90;;;;;;5079219;28;20024;-40
2023/12/05 05:29:40;;;;;;;3.85;3.53;;;-2.40;99.90;;;;;;5081962;28;20126;-38
2023/12/05 05:32:05;;;;;;;10.20;7.78;;;-2.40;99.90;;;;;;5075034;28;20028;-41
2023/12/05 05:34:31;;;;;;;16.30;9.73;;;-2.40;99.90;;;;;;5077286;28;20157;-41
2023/12/05 05:36:57;;;;;;;18.95;9.40;;;-2.40;99.90;;;;;;5072412;28;20399;-35
2023/12/05 05:39:22;;;;;;;8.43;7.53;;;-2.40;99.90;;;;;;5071984;28;20128;-39
2023/12/05 05:41:48;;;;;;;17.15;9.55;;;-2.30;99.90;;;;;;5075228;28;20032;-42
2023/12/05 05:44:13;;;;;;;10.77;8.13;;;-2.40;99.90;;;;;;5071667;28;20024;-40
2023/12/05 05:46:39;;;;;;;13.90;8.80;;;-2.40;99.90;;;;;;5075953;28;20039;-38
2023/12/05 05:49:05;;;;;;;10.07;7.55;;;-2.40;99.90;;;;;;5078983;28;20063;-40
2023/12/05 05:51:30;;;;;;;15.02;8.00;;;-2.30;99.90;;;;;;5073344;28;20074;-39
2023/12/05 05:53:57;;;;;;;10.63;8.10;;;-2.30;99.90;;;;;;5071874;28;20040;-40
2023/12/05 05:56:24;;;;;;;17.45;9.63;;;-2.30;99.90;;;;;;5075000;28;20028;-38
2023/12/05 05:58:50;;;;;;;16.85;8.77;;;-2.40;99.90;;;;;;5074490;28;20036;-38
2023/12/05 06:01:15;;;;;;;14.60;9.27;;;-2.50;99.90;;;;;;5071996;28;20032;-35
2023/12/05 06:03:41;;;;;;;15.10;9.68;;;-2.50;99.90;;;;;;5075231;28;20060;-41
2023/12/05 06:06:07;;;;;;;14.63;10.85;;;-2.50;99.90;;;;;;5088472;28;20032;-39
2023/12/05 06:08:33;;;;;;;11.77;7.45;;;-2.50;99.90;;;;;;5076127;28;20169;-39
2023/12/05 06:10:59;;;;;;;5.35;4.93;;;-2.50;99.90;;;;;;5075493;28;20492;-39
2023/12/05 06:13:25;;;;;;;11.07;8.27;;;-2.60;99.90;;;;;;5074885;28;20013;-36
2023/12/05 06:15:51;;;;;;;14.70;8.15;;;-2.60;99.90;;;;;;5072228;28;20500;-38
2023/12/05 06:18:17;;;;;;;8.88;6.70;;;-2.60;99.90;;;;;;5070078;28;20032;-33
2023/12/05 06:20:51;;;;;;;11.02;8.13;;;-2.60;99.90;;;;;;5074215;28;20594;-38
2023/12/05 06:23:20;;;;;;;8.35;6.63;;;-2.50;99.90;;;;;;5086249;28;20453;-36
2023/12/05 06:25:46;;;;;;;7.80;7.10;;;-2.50;99.90;;;;;;5071089;28;20028;-40
2023/12/05 06:28:12;;;;;;;8.85;7.95;;;-2.40;99.90;;;;;;5072040;28;20032;-41
2023/12/05 06:30:38;;;;;;;8.38;7.32;;;-2.40;99.90;;;;;;5070620;27;20483;-41
2023/12/05 06:33:04;;;;;;;12.52;7.90;;;-2.30;99.90;;;;;;5073483;28;20475;-42
2023/12/05 06:35:29;;;;;;;12.98;7.45;;;-2.30;99.90;;;;;;5073066;28;20127;-41
2023/12/05 06:37:55;;;;;;;12.43;8.02;;;-2.40;99.90;;;;;;5073906;28;20028;-34
2023/12/05 06:40:21;;;;;;;11.05;7.80;;;-2.30;99.90;;;;;;5079622;28;20105;-37
2023/12/05 06:42:46;;;;;;;10.18;7.57;;;-2.30;99.90;;;;;;5081603;28;20031;-33
2023/12/05 06:45:12;;;;;;;9.50;6.45;;;-2.30;99.90;;;;;;5084482;28;20020;-31
2023/12/05 06:47:38;;;;;;;10.68;8.13;;;-2.30;99.90;;;;;;5080013;28;20035;-31
2023/12/05 06:50:10;;;;;;;14.02;8.85;;;-2.20;99.90;;;;;;5080309;28;20546;-31
2023/12/05 06:52:37;;;;;;;8.07;7.25;;;-2.20;99.90;;;;;;5079996;28;20462;-31
2023/12/05 06:55:09;;;;;;;25.15;8.15;;;-2.20;99.90;;;;;;5081495;28;20535;-32
2023/12/05 06:57:36;;;;;;;9.93;7.60;;;-2.20;99.90;;;;;;5084101;28;20784;-30
2023/12/05 07:00:03;;;;;;;9.05;6.20;;;-2.20;99.90;;;;;;5082152;28;20016;-36
2023/12/05 07:02:30;;;;;;;10.32;7.43;;;-2.20;99.90;;;;;;5080583;28;20525;-30
2023/12/05 07:04:57;;;;;;;7.65;6.43;;;-2.20;99.90;;;;;;5076613;28;20024;-32
2023/12/05 07:07:24;;;;;;;8.45;7.60;;;-2.20;99.90;;;;;;5087343;28;20028;-35
2023/12/05 07:09:51;;;;;;;12.35;9.57;;;-2.30;99.90;;;;;;5082981;28;20103;-31
2023/12/05 07:12:17;;;;;;;8.63;6.35;;;-2.20;99.90;;;;;;5080439;28;21135;-33
2023/12/05 07:14:43;;;;;;;10.45;8.32;;;-2.20;99.90;;;;;;5093542;28;20437;-33
2023/12/05 07:17:08;;;;;;;6.45;5.68;;;-2.20;99.90;;;;;;5079625;28;20043;-33
2023/12/05 07:19:34;;;;;;;12.40;8.18;;;-2.30;99.90;;;;;;5077714;28;20032;-32
2023/12/05 07:22:00;;;;;;;8.93;7.28;;;-2.20;99.90;;;;;;5080714;28;20040;-32
2023/12/05 07:24:25;;;;;;;6.35;5.60;;;-2.30;99.90;;;;;;5079074;28;20036;-32
2023/12/05 07:26:51;;;;;;;15.23;8.63;;;-2.30;99.90;;;;;;5085819;28;20602;-34
2023/12/05 07:29:17;;;;;;;10.30;6.93;;;-2.30;99.90;;;;;;5080423;28;20124;-37
2023/12/05 07:31:43;;;;;;;8.30;5.60;;;-2.40;99.90;;;;;;5072260;28;20114;-34
2023/12/05 07:34:10;;;;;;;9.43;8.15;;;-2.40;99.90;;;;;;5081178;28;20093;-33
2023/12/05 07:36:40;;;;;;;18.60;7.20;;;-2.40;99.90;;;;;;5076331;28;20024;-33
2023/12/05 07:39:06;;;;;;;10.70;7.22;;;-2.40;99.90;;;;;;5076354;28;20036;-35
2023/12/05 07:41:32;;;;;;;6.28;5.70;;;-2.30;99.90;;;;;;5073207;28;20038;-34
2023/12/05 07:43:58;;;;;;;13.85;7.72;;;-2.30;99.90;;;;;;5078783;28;20428;-34
2023/12/05 07:46:24;;;;;;;9.85;7.10;;;-2.30;99.90;;;;;;5073510;28;20123;-34
2023/12/05 07:48:50;;;;;;;9.85;6.65;;;-2.30;99.90;;;;;;5075167;28;20054;-33
2023/12/05 07:51:16;;;;;;;11.30;7.88;;;-2.30;99.90;;;;;;5085444;28;20382;-39
2023/12/05 07:53:48;;;;;;;7.03;6.10;;;-2.20;99.90;;;;;;5071699;28;20020;-33
2023/12/05 07:56:14;;;;;;;19.98;8.82;;;-2.20;99.90;;;;;;5083061;28;20421;-33
2023/12/05 07:58:39;;;;;;;8.77;7.65;;;-2.20;99.90;;;;;;5077165;28;20063;-33
2023/12/05 08:01:05;;;;;;;9.80;7.55;;;-2.10;99.90;;;;;;5077274;28;20501;-33
2023/12/05 08:03:33;;;;;;;14.30;7.97;;;-2.10;99.90;;;;;;5079786;28;20424;-33
2023/12/05 08:06:01;;;;;;;13.30;8.07;;;-2.10;99.90;;;;;;5081186;28;20123;-36
2023/12/05 08:08:35;;;;;;;13.40;8.23;;;-2.20;99.90;;;;;;5081881;28;20036;-33
2023/12/05 08:11:02;;;;;;;12.68;9.35;;;-2.10;99.90;;;;;;5074927;28;20381;-32
2023/12/05 08:13:28;;;;;;;14.30;8.32;;;-2.10;99.90;;;;;;5073246;28;20052;-34
2023/12/05 08:15:54;;;;;;;14.27;8.85;;;-2.20;99.90;;;;;;5078279;28;20090;-33
2023/12/05 08:18:20;;;;;;;10.90;9.07;;;-2.20;99.90;;;;;;5074511;28;20039;-38
2023/12/05 08:20:46;;;;;;;10.30;7.32;;;-2.20;99.90;;;;;;5080405;28;20558;-34
2023/12/05 08:23:12;;;;;;;13.07;8.77;;;-2.20;99.90;;;;;;5076341;28;20028;-33
2023/12/05 08:25:38;;;;;;;20.48;9.85;;;-2.30;99.90;;;;;;5080956;28;20805;-33
2023/12/05 08:28:04;;;;;;;14.00;8.57;;;-2.30;99.90;;;;;;5072757;28;20128;-33
2023/12/05 08:30:30;;;;;;;13.98;9.40;;;-2.30;99.90;;;;;;5079080;27;20051;-34
2023/12/05 08:32:58;;;;;;;14.00;10.52;;;-2.30;99.90;;;;;;5078173;28;20455;-33
2023/12/05 08:35:25;;;;;;;13.40;8.52;;;-2.20;99.90;;;;;;5074548;28;20016;-34
2023/12/05 08:37:50;;;;;;;12.23;8.75;;;-2.20;99.90;;;;;;5071995;28;20393;-32
2023/12/05 08:40:17;;;;;;;10.25;7.65;;;-2.10;99.90;;;;;;5074641;28;20024;-37
2023/12/05 08:42:43;;;;;;;9.02;8.18;;;-2.00;99.90;;;;;;5079550;28;20389;-33
2023/12/05 08:45:12;;;;;;;14.13;9.25;;;-1.90;99.90;;;;;;5077713;28;20024;-35
2023/12/05 08:47:39;;;;;;;15.70;8.45;;;-1.90;99.90;;;;;;5080516;28;20077;-33
2023/12/05 08:50:06;;;;;;;13.32;9.60;;;-1.90;99.90;;;;;;5079969;28;20423;-34
2023/12/05 08:52:32;;;;;;;13.00;10.27;;;-1.90;99.90;;;;;;5072804;28;20043;-33
2023/12/05 08:54:58;;;;;;;11.05;8.98;;;-2.00;99.90;;;;;;5079895;28;20070;-33
2023/12/05 08:57:28;;;;;;;9.70;8.07;;;-1.90;99.90;;;;;;5083500;28;20017;-31
2023/12/05 08:59:54;;;;;;;13.85;9.35;;;-1.90;99.90;;;;;;5085016;28;20065;-31
2023/12/05 09:02:25;;;;;;;10.70;7.88;;;-1.90;99.90;;;;;;5079455;28;20124;-34
2023/12/05 09:04:52;;;;;;;9.65;7.18;;;-1.90;99.90;;;;;;5075849;28;20367;-31
2023/12/05 09:07:18;;;;;;;11.82;8.27;;;-1.80;99.90;;;;;;5076533;28;20025;-33
2023/12/05 09:09:43;;;;;;;11.02;7.90;;;-1.80;99.90;;;;;;5077669;28;20032;-33
2023/12/05 09:12:09;;;;;;;11.27;6.47;;;-1.70;99.90;;;;;;5077422;28;20036;-34
2023/12/05 09:14:35;;;;;;;7.50;6.75;;;-1.60;99.90;;;;;;5073777;28;20028;-33
2023/12/05 09:17:01;;;;;;;8.80;6.68;;;-1.50;99.90;;;;;;5073698;28;20028;-34
2023/12/05 09:19:27;;;;;;;8.95;6.60;;;-1.50;99.90;;;;;;5079406;28;20025;-33
2023/12/05 09:21:53;;;;;;;9.60;6.88;;;-1.40;99.90;;;;;;5081104;28;20052;-34
2023/12/05 09:24:18;;;;;;;14.05;5.97;;;-1.40;99.90;;;;;;5072370;28;20035;-36
2023/12/05 09:26:44;;;;;;;12.57;6.75;;;-1.30;99.90;;;;;;5074198;28;20032;-32
2023/12/05 09:29:10;;;;;;;7.95;6.47;;;-1.30;99.90;;;;;;5102319;27;20566;-34
2023/12/05 09:31:36;;;;;;;6.05;5.47;;;-1.30;99.90;;;;;;5079746;27;20124;-35
2023/12/05 09:34:03;;;;;;;5.32;4.82;;;-1.20;99.90;;;;;;5077314;28;20016;-32
2023/12/05 09:36:30;;;;;;;6.22;4.57;;;-1.10;99.90;;;;;;5074161;28;20108;-33
2023/12/05 09:38:56;;;;;;;6.65;4.88;;;-1.10;99.90;;;;;;5077970;28;20032;-32
2023/12/05 09:41:22;;;;;;;6.15;4.82;;;-1.00;99.90;;;;;;5074530;28;20549;-33
2023/12/05 09:43:51;;;;;;;6.15;4.43;;;-1.00;99.90;;;;;;5073040;28;20028;-42
2023/12/05 09:46:22;;;;;;;4.95;4.07;;;-1.00;99.90;;;;;;5074170;28;20468;-38
2023/12/05 09:48:54;;;;;;;11.48;6.30;;;-0.90;99.90;;;;;;5074714;28;20036;-35
2023/12/05 09:51:22;;;;;;;6.05;5.35;;;-0.90;99.90;;;;;;5082438;28;20021;-42
2023/12/05 09:53:50;;;;;;;9.73;5.90;;;-0.80;99.90;;;;;;5079745;28;20021;-42
2023/12/05 09:56:16;;;;;;;13.35;7.00;;;-0.60;99.90;;;;;;5080499;28;20582;-36
2023/12/05 09:58:45;;;;;;;14.13;9.32;;;-0.40;99.90;;;;;;5079625;28;20028;-43
2023/12/05 10:01:16;;;;;;;;;;;-0.20;99.90;;;;;;5071783;28;20037;-40
2023/12/05 10:03:47;;;;;;;16.77;6.28;;;-0.20;99.90;;;;;;5112922;27;19909;-42
2023/12/05 10:06:15;;;;;;;7.22;3.53;;;-0.20;99.90;;;;;;5087504;28;20035;-40
2023/12/05 10:08:42;;;;;;;10.85;6.70;;;-0.20;99.90;;;;;;5084103;28;20096;-38
2023/12/05 10:11:13;;;;;;;27.10;14.32;;;-0.20;99.90;;;;;;5078428;28;20033;-39
2023/12/05 10:13:44;;;;;;;94.75;45.80;;;-0.10;99.90;;;;;;5084059;28;20050;-39
2023/12/05 10:16:13;;;;;;;28.65;16.77;;;0.00;99.90;;;;;;5073893;28;20028;-40
2023/12/05 10:18:41;;;;;;;44.38;32.28;;;0.10;99.90;;;;;;5075333;28;20067;-42
2023/12/05 10:21:06;;;;;;;17.90;14.27;;;0.20;99.90;;;;;;5076788;28;20498;-40
2023/12/05 10:23:33;;;;;;;18.60;8.55;;;0.50;99.90;;;;;;5076230;28;20031;-40
2023/12/05 10:25:58;;;;;;;11.65;9.02;;;0.60;99.90;;;;;;5080473;28;20109;-39
2023/12/05 10:28:25;;;;;;;9.57;6.15;;;0.70;99.90;;;;;;5078330;28;20090;-41
2023/12/05 10:30:51;;;;;;;8.70;5.15;;;0.80;99.90;;;;;;5079725;28;20036;-39
2023/12/05 10:33:21;;;;;;;10.00;6.22;;;0.90;99.90;;;;;;5078470;28;20035;-38
2023/12/05 10:35:47;;;;;;;5.45;4.50;;;1.00;99.90;;;;;;5084727;28;20028;-38
2023/12/05 10:38:18;;;;;;;8.75;4.80;;;1.00;99.90;;;;;;5082816;28;20032;-40
2023/12/05 10:40:59;;;;;;;5.97;3.53;;;1.10;99.90;;;;;;5080088;28;20032;-40
2023/12/05 10:43:26;;;;;;;5.30;3.72;;;1.20;99.90;;;;;;5114063;27;20699;-38
2023/12/05 10:45:56;;;;;;;8.83;3.33;;;1.20;99.90;;;;;;5082899;28;20064;-42
2023/12/05 10:48:25;;;;;;;6.82;3.53;;;1.30;99.90;;;;;;5079385;28;20032;-38
2023/12/05 10:50:51;;;;;;;4.97;3.40;;;1.40;99.90;;;;;;5079231;28;20039;-38
2023/12/05 10:53:18;;;;;;;6.70;3.50;;;1.50;99.90;;;;;;5078220;28;20032;-37
2023/12/05 10:55:45;;;;;;;7.28;4.45;;;1.60;99.90;;;;;;5074770;28;20127;-42
2023/12/05 10:58:11;;;;;;;4.68;3.25;;;1.70;99.90;;;;;;5079759;28;20419;-38
2023/12/05 11:00:39;;;;;;;5.00;3.17;;;1.70;99.90;;;;;;5072509;28;20032;-40
2023/12/05 11:03:06;;;;;;;8.20;3.73;;;1.80;99.90;;;;;;5074210;28;20134;-39
2023/12/05 11:05:35;;;;;;;11.23;3.28;;;1.80;99.90;;;;;;5070712;28;20024;-41
2023/12/05 11:08:03;;;;;;;6.00;3.75;;;1.90;99.90;;;;;;5084957;28;20393;-42
2023/12/05 11:10:30;;;;;;;5.20;3.22;;;1.90;99.90;;;;;;5074734;28;20024;-42
2023/12/05 11:12:58;;;;;;;4.70;3.42;;;2.00;99.90;;;;;;5077817;28;20040;-38
2023/12/05 11:15:29;;;;;;;3.25;2.83;;;2.00;99.90;;;;;;5072945;28;20359;-40
2023/12/05 11:18:35;;;;;;;5.75;3.33;;;2.00;99.90;;;;;;5078245;28;20040;-32
2023/12/05 11:21:32;;;;;;;4.20;3.38;;;2.10;99.90;;;;;;5083126;28;20059;-32
2023/12/05 11:23:57;;;;;;;5.43;3.00;;;2.20;99.90;;;;;;5078807;28;20489;-31
2023/12/05 11:26:42;;;;;;;3.60;2.97;;;2.20;99.90;;;;;;5083407;28;20055;-33
2023/12/05 11:29:37;;;;;;;3.33;2.92;;;2.30;99.90;;;;;;5084703;28;20140;-41
2023/12/05 11:32:30;;;;;;;5.30;3.25;;;2.40;99.90;;;;;;5075268;28;20047;-40
2023/12/05 11:35:02;;;;;;;3.70;2.47;;;2.40;99.90;;;;;;5076344;28;20060;-40
2023/12/05 11:38:02;;;;;;;5.13;3.40;;;2.40;99.90;;;;;;5069349;28;20112;-39
2023/12/05 11:40:28;;;;;;;5.43;2.72;;;2.50;99.90;;;;;;5103664;27;20052;-41
2023/12/05 11:43:11;;;;;;;4.20;3.05;;;2.50;99.90;;;;;;5079234;28;20393;-41
2023/12/05 11:45:42;;;;;;;3.47;2.72;;;2.50;99.90;;;;;;5092362;27;20041;-39
2023/12/05 11:48:15;;;;;;;4.18;2.38;;;2.50;99.90;;;;;;5076856;28;20059;-42
2023/12/05 11:50:45;;;;;;;8.50;4.07;;;2.60;99.90;;;;;;5078574;28;20025;-39
2023/12/05 11:53:12;;;;;;;4.00;2.88;;;2.60;99.90;;;;;;5077311;28;20077;-39
2023/12/05 11:55:47;;;;;;;2.97;2.67;;;2.60;99.90;;;;;;5079573;28;20027;-41
2023/12/05 11:58:33;;;;;;;5.50;2.75;;;2.50;99.90;;;;;;5080428;28;20085;-41
2023/12/05 12:01:06;;;;;;;3.60;3.00;;;2.50;99.90;;;;;;5077885;28;20088;-40
2023/12/05 12:03:50;;;;;;;5.82;2.72;;;2.60;99.90;;;;;;5079120;28;20028;-37
2023/12/05 12:06:24;;;;;;;3.08;2.42;;;2.70;99.90;;;;;;5075378;28;20104;-34
2023/12/05 12:08:53;;;;;;;3.25;1.92;;;2.70;99.90;;;;;;5085963;28;20032;-39
2023/12/05 12:11:20;;;;;;;4.75;2.95;;;2.70;99.90;;;;;;5073553;28;20021;-37
2023/12/05 12:13:48;;;;;;;3.15;2.10;;;2.80;99.90;;;;;;5073642;28;20040;-43
2023/12/05 12:16:16;;;;;;;3.10;2.55;;;2.70;99.90;;;;;;5073667;28;20036;-40
2023/12/05 12:18:42;;;;;;;2.25;1.88;;;2.80;99.90;;;;;;5075734;28;20028;-38
2023/12/05 12:21:08;;;;;;;2.83;2.00;;;2.80;99.90;;;;;;5080146;28;20045;-42
2023/12/05 12:23:34;;;;;;;2.95;2.03;;;2.90;99.90;;;;;;5081905;28;20031;-41
2023/12/05 12:26:01;;;;;;;2.08;1.88;;;2.90;99.90;;;;;;5078290;28;20509;-42
2023/12/05 12:28:29;;;;;;;2.75;2.22;;;2.90;99.90;;;;;;5094455;28;20032;-42
2023/12/05 12:30:58;;;;;;;2.13;1.90;;;2.90;99.90;;;;;;5079929;28;20489;-41
2023/12/05 12:33:39;;;;;;;2.10;1.92;;;2.90;99.90;;;;;;5072184;28;20036;-41
2023/12/05 12:36:09;;;;;;;2.28;2.08;;;2.90;99.90;;;;;;5076417;28;20028;-40
2023/12/05 12:38:36;;;;;;;5.53;2.45;;;2.90;99.90;;;;;;5081205;28;20028;-39
2023/12/05 12:41:03;;;;;;;3.15;2.28;;;2.80;99.90;;;;;;5081005;28;20032;-39
2023/12/05 12:43:29;;;;;;;2.20;2.00;;;2.90;99.90;;;;;;5082027;28;20032;-40